CheckWX is a tool to help pilots better visualize weather data.  It is not intended as a substitute for an official pre-flight weather briefing.

19:39:35 UTC

KPRC TAF
Ernest A Love Field Airport
Prescott, Arizona, USA
KPRC 302321Z 3100/3124 18015G23KT P6SM FEW150 FM310200 20008KT P6SM FEW120 FM311800 19017G27KT P6SM SCT060

May-31@
00:00 UTC

May-31 @ 00:00 UTC

May-31@
02:00 UTC

May-31 @ 02:00 UTC

TAF KPRC 302321Z 3100/3124 18015G23KT P6SM FEW150

Expired

Wind
  • 180° at 15 KTS
  • {Gusting to 23 KTS
Cloud Levels
  • Few at 15,000' AGL

May-31@
02:00 UTC

May-31 @ 02:00 UTC

May-31@
18:00 UTC

May-31 @ 18:00 UTC

FM310200 20008KT P6SM FEW120

Expired

Wind
  • 200° at 8 KTS
Cloud Levels
  • Few at 12,000' AGL

May-31@
18:00 UTC

May-31 @ 18:00 UTC

Jun-1@
00:00 UTC

Jun-1 @ 00:00 UTC

FM311800 19017G27KT P6SM SCT060

From

From Standard forecast or significant change

Wind
  • 190° at 17 KTS
  • {Gusting to 27 KTS
Cloud Levels
  • Scattered at 6,000' AGL